Time;durP1;ratioP1;P1;durP2;ratioP2;P2;SDS_P1;SDS_P2;PMS_P1;PMS_P2;Temp;Humidity;BMP_temperature;BMP_pressure;BME280_temperature;BME280_humidity;BME280_pressure;Samples;Min_cycle;Max_cycle;Signal;HPM_P1;HPM_P2
2022/06/16 00:02:13;;;;;;;8.77;4.75;;;16.90;99.90;;;;;;5057067;28;20127;-75
2022/06/16 00:04:46;;;;;;;;;;;16.90;99.90;;;;;;5056826;28;20411;-75
2022/06/16 00:07:16;;;;;;;9.10;4.43;;;16.80;99.90;;;;;;5088156;28;19917;-75
2022/06/16 00:09:43;;;;;;;6.18;4.30;;;16.80;99.90;;;;;;5056306;28;20037;-75
2022/06/16 00:12:10;;;;;;;11.93;4.85;;;16.80;99.90;;;;;;5056428;28;20044;-75
2022/06/16 00:14:37;;;;;;;9.13;5.03;;;16.70;99.90;;;;;;5056397;28;20385;-74
2022/06/16 00:17:04;;;;;;;9.63;5.70;;;16.60;99.90;;;;;;5056710;28;20044;-74
2022/06/16 00:19:31;;;;;;;7.85;4.78;;;16.60;99.90;;;;;;5056383;28;20045;-74
2022/06/16 00:21:59;;;;;;;6.45;4.80;;;16.60;99.90;;;;;;5057115;28;20052;-75
2022/06/16 00:24:27;;;;;;;10.25;5.45;;;16.50;99.90;;;;;;5057217;28;20095;-74
2022/06/16 00:26:55;;;;;;;9.90;4.95;;;16.40;99.90;;;;;;5055502;28;20044;-74
2022/06/16 00:29:24;;;;;;;8.93;4.63;;;16.40;99.90;;;;;;5055034;28;20041;-74
2022/06/16 00:31:51;;;;;;;8.68;5.50;;;16.30;99.90;;;;;;5055989;28;20388;-74
2022/06/16 00:34:18;;;;;;;9.77;5.22;;;16.30;99.90;;;;;;5056889;28;20041;-74
2022/06/16 00:36:45;;;;;;;6.30;4.22;;;16.20;99.90;;;;;;5055347;28;20116;-75
2022/06/16 00:39:12;;;;;;;7.25;4.72;;;16.20;99.90;;;;;;5056425;28;20220;-75
2022/06/16 00:41:38;;;;;;;7.30;5.00;;;16.10;99.90;;;;;;5056292;28;20523;-74
2022/06/16 00:44:40;;;;;;;8.57;4.60;;;16.10;99.90;;;;;;5055922;28;20044;-75
2022/06/16 00:47:07;;;;;;;7.97;4.43;;;16.10;99.90;;;;;;5055955;28;20048;-75
2022/06/16 00:49:34;;;;;;;8.88;5.57;;;16.00;99.90;;;;;;5056144;28;20487;-74
2022/06/16 00:52:06;;;;;;;14.82;5.70;;;16.00;99.90;;;;;;5054740;28;20044;-75
2022/06/16 00:54:37;;;;;;;9.23;5.05;;;16.00;99.90;;;;;;5055302;28;20045;-75
2022/06/16 00:57:07;;;;;;;6.88;5.05;;;15.90;99.90;;;;;;5055630;28;20045;-75
2022/06/16 00:59:33;;;;;;;6.65;5.22;;;15.90;99.90;;;;;;5054575;28;20045;-74
2022/06/16 01:02:03;;;;;;;8.80;5.38;;;15.80;99.90;;;;;;5055245;28;20047;-75
2022/06/16 01:07:15;;;;;;;7.93;5.55;;;15.80;99.90;;;;;;5054416;28;20045;-75
2022/06/16 01:09:43;;;;;;;9.82;6.07;;;15.70;99.90;;;;;;5054608;28;20053;-76
2022/06/16 01:15:49;;;;;;;10.10;6.22;;;15.70;99.90;;;;;;5055531;28;20372;-75
2022/06/16 01:18:34;;;;;;;8.05;5.20;;;15.70;99.90;;;;;;5033483;28;20053;-75
2022/06/16 01:21:18;;;;;;;6.85;6.15;;;15.60;99.90;;;;;;5033989;28;20041;-75
2022/06/16 01:24:13;;;;;;;8.18;5.45;;;15.60;99.90;;;;;;5044756;28;20366;-75
2022/06/16 01:26:57;;;;;;;9.65;6.70;;;15.60;99.90;;;;;;5053899;28;20055;-75
2022/06/16 01:29:39;;;;;;;9.50;6.63;;;15.50;99.90;;;;;;5054495;28;20041;-75
2022/06/16 01:32:35;;;;;;;11.18;6.35;;;15.50;99.90;;;;;;5054099;28;20045;-75
2022/06/16 01:35:10;;;;;;;7.47;6.00;;;15.50;99.90;;;;;;5055285;28;20460;-75
2022/06/16 01:37:49;;;;;;;12.57;6.47;;;15.40;99.90;;;;;;5037676;28;20052;-75
2022/06/16 01:40:18;;;;;;;11.77;6.32;;;15.40;99.90;;;;;;5055530;28;20095;-75
2022/06/16 01:42:50;;;;;;;9.35;5.88;;;15.40;99.90;;;;;;5054499;28;20063;-75
2022/06/16 01:45:28;;;;;;;11.65;6.10;;;15.30;99.90;;;;;;5053879;28;20051;-75
2022/06/16 01:47:55;;;;;;;12.15;6.40;;;15.30;99.90;;;;;;5055059;28;20045;-74
2022/06/16 01:50:25;;;;;;;7.82;6.32;;;15.30;99.90;;;;;;5053716;28;20439;-74
2022/06/16 01:53:07;;;;;;;9.65;7.05;;;15.30;99.90;;;;;;5055012;28;20143;-74
2022/06/16 01:55:38;;;;;;;6.85;5.97;;;15.20;99.90;;;;;;5053470;28;20464;-74
2022/06/16 01:58:12;;;;;;;11.68;6.85;;;15.30;99.90;;;;;;5054240;28;20045;-74
2022/06/16 02:00:39;;;;;;;9.23;6.30;;;15.30;99.90;;;;;;5053711;28;20060;-75
2022/06/16 02:03:12;;;;;;;11.63;7.68;;;15.20;99.90;;;;;;5052721;28;20552;-74
2022/06/16 02:05:51;;;;;;;10.73;7.10;;;15.20;99.90;;;;;;5054089;28;20041;-74
2022/06/16 02:08:24;;;;;;;10.30;6.13;;;15.20;99.90;;;;;;5054438;28;20052;-75
2022/06/16 02:10:59;;;;;;;12.25;7.35;;;15.20;99.90;;;;;;5054088;28;20676;-74
2022/06/16 02:13:30;;;;;;;11.15;7.38;;;15.10;99.90;;;;;;5053852;28;20048;-75
2022/06/16 02:16:18;;;;;;;6.85;6.15;;;15.10;99.90;;;;;;5054234;28;20061;-75
2022/06/16 02:18:45;;;;;;;11.00;6.88;;;15.10;99.90;;;;;;5036858;28;20124;-75
2022/06/16 02:21:31;;;;;;;9.85;7.45;;;15.00;99.90;;;;;;5054851;28;20037;-75
2022/06/16 02:23:58;;;;;;;8.70;6.28;;;15.00;99.90;;;;;;5056084;28;20041;-75
2022/06/16 02:26:25;;;;;;;6.80;6.10;;;14.90;99.90;;;;;;5057055;28;20079;-74
2022/06/16 02:28:54;;;;;;;9.13;6.40;;;14.90;99.90;;;;;;5055409;28;20044;-75
2022/06/16 02:31:35;;;;;;;9.00;6.73;;;14.90;99.90;;;;;;5056381;28;20041;-75
2022/06/16 02:34:14;;;;;;;12.60;7.20;;;14.90;99.90;;;;;;5055149;28;20288;-74
2022/06/16 02:36:47;;;;;;;9.48;7.63;;;14.90;99.90;;;;;;5055400;28;20044;-74
2022/06/16 02:39:53;;;;;;;10.38;6.57;;;14.80;99.90;;;;;;5055101;28;20049;-74
2022/06/16 02:42:49;;;;;;;7.40;6.18;;;14.80;99.90;;;;;;5041681;28;20045;-75
2022/06/16 02:45:55;;;;;;;9.73;6.07;;;14.80;99.90;;;;;;5054944;28;20116;-75
2022/06/16 02:48:29;;;;;;;8.73;6.63;;;14.70;99.90;;;;;;5054581;28;20388;-74
2022/06/16 02:51:12;;;;;;;9.35;5.50;;;14.70;99.90;;;;;;5053902;28;20041;-75
2022/06/16 02:53:44;;;;;;;8.70;6.78;;;14.60;99.90;;;;;;5038311;28;20048;-75
2022/06/16 02:56:27;;;;;;;10.00;6.57;;;14.60;99.90;;;;;;5054034;28;20049;-75
2022/06/16 02:58:55;;;;;;;8.57;6.55;;;14.50;99.90;;;;;;5054926;28;20041;-76
2022/06/16 03:01:22;;;;;;;8.30;6.07;;;14.40;99.90;;;;;;5053585;28;20040;-75
2022/06/16 03:04:21;;;;;;;7.78;5.47;;;14.40;99.90;;;;;;5055973;28;20052;-75
2022/06/16 03:06:48;;;;;;;10.98;6.68;;;14.40;99.90;;;;;;5043012;28;20060;-75
2022/06/16 03:09:15;;;;;;;12.30;6.80;;;14.30;99.90;;;;;;5054222;28;20495;-75
2022/06/16 03:11:42;;;;;;;10.73;7.40;;;14.30;99.90;;;;;;5054240;28;20067;-75
2022/06/16 03:14:09;;;;;;;10.55;7.40;;;14.30;99.90;;;;;;5054933;28;20049;-75
2022/06/16 03:16:38;;;;;;;11.55;7.85;;;14.30;99.90;;;;;;5055468;28;20105;-75
2022/06/16 03:19:05;;;;;;;12.63;8.50;;;14.20;99.90;;;;;;5053331;28;20040;-74
2022/06/16 03:21:31;;;;;;;12.88;8.40;;;14.10;99.90;;;;;;5060379;28;20045;-75
2022/06/16 03:23:58;;;;;;;15.90;7.90;;;14.10;99.90;;;;;;5060065;28;20045;-74
2022/06/16 03:26:25;;;;;;;12.68;8.48;;;14.10;99.90;;;;;;5055095;28;20041;-75
2022/06/16 03:28:52;;;;;;;13.88;8.25;;;14.10;99.90;;;;;;5053047;28;20047;-74
2022/06/16 03:31:19;;;;;;;9.35;7.15;;;14.10;99.90;;;;;;5054329;28;20391;-74
2022/06/16 03:33:46;;;;;;;10.77;7.80;;;14.10;99.90;;;;;;5053317;28;20131;-74
2022/06/16 03:36:13;;;;;;;10.82;8.70;;;14.00;99.90;;;;;;5053377;28;20048;-74
2022/06/16 03:38:43;;;;;;;11.25;7.80;;;14.00;99.90;;;;;;5052941;28;20049;-74
2022/06/16 03:41:10;;;;;;;10.13;8.30;;;14.00;99.90;;;;;;5052561;28;20460;-74
2022/06/16 03:43:38;;;;;;;12.00;7.15;;;14.00;99.90;;;;;;5052112;28;20473;-75
2022/06/16 03:46:05;;;;;;;9.40;8.48;;;14.00;99.90;;;;;;5051699;28;20056;-74
2022/06/16 03:48:39;;;;;;;12.52;8.48;;;14.00;99.90;;;;;;5059499;28;20068;-74
2022/06/16 03:51:06;;;;;;;11.02;7.72;;;14.00;99.90;;;;;;5060257;28;20045;-74
2022/06/16 03:53:33;;;;;;;10.95;7.72;;;13.90;99.90;;;;;;5053303;28;20071;-74
2022/06/16 03:56:00;;;;;;;12.48;8.30;;;13.90;99.90;;;;;;5051996;28;20057;-74
2022/06/16 03:58:26;;;;;;;11.63;7.82;;;13.90;99.90;;;;;;5054942;28;20068;-74
2022/06/16 04:00:53;;;;;;;13.50;8.43;;;13.90;99.90;;;;;;5058346;28;20045;-76
2022/06/16 04:06:05;;;;;;;11.55;7.15;;;13.90;99.90;;;;;;5058782;28;20037;-73
2022/06/16 04:08:32;;;;;;;9.68;7.25;;;13.90;99.90;;;;;;5053813;28;20051;-74
2022/06/16 04:11:26;;;;;;;7.75;6.95;;;14.00;99.90;;;;;;5063376;28;20041;-74
2022/06/16 04:13:46;;;;;;;10.80;7.45;;;14.00;99.90;;;;;;5063510;28;20109;-73
2022/06/16 04:16:13;;;;;;;11.85;7.68;;;14.00;99.90;;;;;;5068894;28;20068;-74
2022/06/16 04:18:40;;;;;;;11.18;7.75;;;14.00;99.90;;;;;;5063198;28;20124;-75
2022/06/16 04:21:07;;;;;;;11.73;7.97;;;14.00;99.90;;;;;;5054878;28;20052;-76
2022/06/16 04:23:33;;;;;;;9.50;7.13;;;14.00;99.90;;;;;;5055824;28;20509;-75
2022/06/16 04:26:00;;;;;;;10.50;8.00;;;14.00;99.90;;;;;;5055352;28;20052;-75
2022/06/16 04:28:27;;;;;;;9.45;7.20;;;14.00;99.90;;;;;;5057020;28;20041;-74
2022/06/16 04:30:54;;;;;;;10.85;7.28;;;14.10;99.90;;;;;;5040693;28;20049;-75
2022/06/16 04:33:21;;;;;;;11.10;7.78;;;14.20;99.90;;;;;;5057987;28;20090;-75
2022/06/16 04:35:48;;;;;;;11.02;8.32;;;14.20;99.90;;;;;;5056253;28;20051;-75
2022/06/16 04:38:15;;;;;;;12.93;8.82;;;14.30;99.90;;;;;;5058145;28;20041;-74
2022/06/16 04:40:42;;;;;;;8.98;7.65;;;14.50;99.90;;;;;;5067240;28;20049;-74
2022/06/16 04:43:10;;;;;;;10.90;7.72;;;14.90;99.90;;;;;;5067979;28;20048;-75
2022/06/16 04:45:38;;;;;;;13.38;8.55;;;15.40;99.90;;;;;;5056444;28;20457;-74
2022/06/16 04:48:05;;;;;;;12.80;8.57;;;15.80;99.90;;;;;;5058122;28;20055;-74
2022/06/16 04:50:32;;;;;;;13.82;9.23;;;16.30;99.90;;;;;;5058883;28;20037;-74
2022/06/16 04:52:59;;;;;;;14.00;9.38;;;16.80;99.90;;;;;;5056565;28;20056;-75
2022/06/16 04:55:26;;;;;;;29.17;23.67;;;17.30;99.90;;;;;;5057486;28;20052;-75
2022/06/16 04:57:54;;;;;;;31.42;22.48;;;17.70;99.90;;;;;;5056234;28;20049;-75
2022/06/16 05:00:21;;;;;;;17.67;13.93;;;18.10;99.90;;;;;;5057265;28;20072;-75
2022/06/16 05:02:50;;;;;;;12.90;9.15;;;18.50;99.90;;;;;;5057537;28;20045;-75
2022/06/16 05:05:18;;;;;;;10.65;7.80;;;19.00;99.90;;;;;;5057463;28;20048;-75
2022/06/16 05:07:45;;;;;;;14.38;8.48;;;19.60;99.90;;;;;;5057086;28;20044;-75
2022/06/16 05:10:12;;;;;;;9.43;7.32;;;20.10;99.90;;;;;;5056159;28;20045;-74
2022/06/16 05:12:39;;;;;;;13.02;7.20;;;20.50;99.90;;;;;;5056917;28;20041;-74
2022/06/16 05:15:06;;;;;;;11.48;7.30;;;21.00;99.90;;;;;;5056363;28;20040;-75
2022/06/16 05:17:33;;;;;;;7.57;6.50;;;21.50;99.90;;;;;;5055486;28;20389;-74
2022/06/16 05:20:01;;;;;;;10.50;6.32;;;21.80;99.40;;;;;;5055132;28;20041;-74
2022/06/16 05:22:27;;;;;;;11.02;6.38;;;22.10;96.90;;;;;;5055821;28;20041;-75
2022/06/16 05:24:54;;;;;;;11.10;6.40;;;22.40;96.00;;;;;;5056426;28;20045;-75
2022/06/16 05:27:21;;;;;;;10.55;5.57;;;22.70;94.10;;;;;;5038722;28;20052;-74
2022/06/16 05:29:48;;;;;;;9.02;5.80;;;22.90;92.70;;;;;;5055744;28;20055;-74
2022/06/16 05:32:15;;;;;;;7.70;5.30;;;22.90;91.70;;;;;;5056664;28;20041;-74
2022/06/16 05:34:44;;;;;;;8.77;5.43;;;22.80;90.60;;;;;;5053983;28;20041;-73
2022/06/16 05:37:11;;;;;;;14.05;11.48;;;22.70;90.20;;;;;;5055438;28;20432;-76
2022/06/16 05:39:39;;;;;;;9.60;6.80;;;22.70;90.60;;;;;;5054878;28;20052;-76
2022/06/16 05:42:08;;;;;;;6.25;4.57;;;22.60;90.70;;;;;;5037230;28;20041;-75
2022/06/16 05:44:36;;;;;;;8.25;5.10;;;22.60;89.50;;;;;;5053517;28;20476;-76
2022/06/16 05:47:04;;;;;;;10.02;4.13;;;22.40;89.80;;;;;;5055459;28;20044;-75
2022/06/16 05:49:32;;;;;;;6.20;4.00;;;22.00;90.30;;;;;;5053457;28;20047;-75
2022/06/16 05:52:00;;;;;;;6.05;3.67;;;21.70;90.30;;;;;;5053826;28;20041;-76
2022/06/16 05:54:27;;;;;;;8.82;4.25;;;21.30;92.20;;;;;;5054497;28;20094;-77
2022/06/16 05:56:54;;;;;;;7.13;4.03;;;21.00;93.10;;;;;;5054219;28;20099;-76
2022/06/16 05:59:21;;;;;;;9.25;4.32;;;20.90;94.10;;;;;;5055324;28;20048;-76
2022/06/16 06:01:48;;;;;;;6.88;4.13;;;20.90;94.90;;;;;;5054963;28;20045;-76
2022/06/16 06:04:15;;;;;;;13.52;8.30;;;21.10;94.70;;;;;;5053616;28;20041;-75
2022/06/16 06:06:42;;;;;;;62.42;55.60;;;21.10;93.70;;;;;;5053183;28;20049;-69
2022/06/16 06:17:26;;;;;;;7.38;4.85;;;21.40;93.20;;;;;;5057454;28;20048;-77
2022/06/16 06:19:56;;;;;;;9.75;4.82;;;21.40;93.00;;;;;;5054477;28;20041;-74
2022/06/16 06:22:26;;;;;;;7.53;5.18;;;21.60;93.60;;;;;;5037843;28;20044;-77
2022/06/16 06:24:54;;;;;;;10.07;6.88;;;21.50;91.90;;;;;;5053131;28;20043;-72
2022/06/16 06:27:27;;;;;;;144.85;124.80;;;21.40;92.30;;;;;;5052855;28;20044;-78
2022/06/16 06:30:01;;;;;;;21.55;16.80;;;21.40;92.80;;;;;;5069885;28;20052;-77
2022/06/16 06:32:28;;;;;;;11.63;7.45;;;21.40;92.60;;;;;;5055644;28;20056;-77
2022/06/16 06:34:55;;;;;;;10.50;5.93;;;21.30;92.80;;;;;;5056710;28;20045;-77
2022/06/16 06:37:23;;;;;;;6.93;5.47;;;21.30;93.70;;;;;;5055017;28;20041;-75
2022/06/16 06:39:51;;;;;;;6.65;5.07;;;21.40;93.40;;;;;;5037739;28;20056;-70
2022/06/16 06:42:18;;;;;;;9.05;5.63;;;21.50;93.60;;;;;;5054154;28;20123;-71
2022/06/16 06:44:45;;;;;;;11.23;6.40;;;21.50;93.20;;;;;;5052808;28;20093;-67
2022/06/16 06:47:28;;;;;;;7.07;5.00;;;21.50;92.90;;;;;;5053465;28;20377;-70
2022/06/16 06:49:55;;;;;;;10.38;5.47;;;21.60;94.40;;;;;;5053866;28;20091;-74
2022/06/16 06:52:22;;;;;;;7.55;5.40;;;21.70;94.20;;;;;;5052286;28;20037;-74
2022/06/16 06:54:49;;;;;;;9.25;5.47;;;21.70;93.00;;;;;;5052676;28;20048;-74
2022/06/16 06:57:21;;;;;;;10.13;5.82;;;21.60;94.10;;;;;;5054340;28;20072;-75
2022/06/16 06:59:49;;;;;;;7.65;5.40;;;21.70;93.20;;;;;;5053793;28;20056;-75
2022/06/16 07:02:16;;;;;;;8.57;5.50;;;21.60;93.30;;;;;;5054434;28;20049;-74
2022/06/16 07:04:43;;;;;;;13.07;6.15;;;21.60;92.90;;;;;;5053210;28;20052;-67
2022/06/16 07:07:12;;;;;;;8.75;5.45;;;21.70;93.40;;;;;;5035965;28;20401;-68
2022/06/16 07:09:39;;;;;;;8.70;6.00;;;21.70;93.70;;;;;;5052325;28;20064;-69
2022/06/16 07:12:13;;;;;;;11.68;6.38;;;21.80;94.10;;;;;;5052306;28;20041;-70
2022/06/16 07:14:45;;;;;;;9.82;5.22;;;21.90;93.90;;;;;;5054168;28;20072;-68
2022/06/16 07:17:13;;;;;;;9.07;5.40;;;22.00;93.00;;;;;;5052942;28;20062;-69
2022/06/16 07:19:40;;;;;;;11.15;6.40;;;22.00;93.10;;;;;;5052171;28;20045;-68
2022/06/16 07:22:07;;;;;;;6.85;5.35;;;22.10;92.40;;;;;;5053925;28;20067;-72
2022/06/16 07:24:35;;;;;;;9.32;6.05;;;22.20;92.80;;;;;;5052252;28;20127;-76
2022/06/16 07:27:03;;;;;;;9.75;5.43;;;22.30;91.90;;;;;;5053107;28;20037;-73
2022/06/16 07:29:29;;;;;;;12.60;6.47;;;22.30;92.40;;;;;;5052680;28;20140;-77
2022/06/16 07:32:05;;;;;;;10.85;6.13;;;22.20;91.30;;;;;;5053778;28;20053;-65
2022/06/16 07:34:32;;;;;;;80.35;71.57;;;22.30;92.00;;;;;;5051762;28;20046;-63
2022/06/16 07:36:59;;;;;;;12.68;11.25;;;22.40;91.20;;;;;;5053696;28;20041;-62
2022/06/16 07:39:26;;;;;;;10.30;7.05;;;22.40;91.40;;;;;;5053962;28;20041;-62
2022/06/16 07:41:53;;;;;;;12.27;6.63;;;22.40;92.10;;;;;;5052563;28;20045;-63
2022/06/16 07:44:20;;;;;;;9.38;5.57;;;22.60;92.10;;;;;;5052495;28;20041;-62
2022/06/16 07:46:47;;;;;;;15.38;6.63;;;22.60;92.10;;;;;;5053928;28;20100;-61
2022/06/16 07:49:21;;;;;;;9.50;5.30;;;22.70;91.40;;;;;;5053214;28;20123;-62
2022/06/16 07:51:50;;;;;;;9.63;6.20;;;22.70;91.50;;;;;;5051921;28;20044;-62
2022/06/16 07:54:18;;;;;;;10.80;6.72;;;22.80;92.00;;;;;;5053128;28;20052;-63
2022/06/16 07:57:04;;;;;;;11.38;5.53;;;22.90;90.90;;;;;;5054475;28;20107;-63
2022/06/16 07:59:31;;;;;;;9.07;6.32;;;22.90;90.80;;;;;;5035373;28;20041;-63
2022/06/16 08:01:58;;;;;;;13.50;6.30;;;23.00;90.20;;;;;;5053214;28;20041;-62
2022/06/16 08:04:26;;;;;;;10.00;6.20;;;23.10;91.50;;;;;;5056604;28;20464;-63
2022/06/16 08:06:53;;;;;;;8.98;5.60;;;23.20;91.30;;;;;;5056592;28;20049;-63
2022/06/16 08:09:20;;;;;;;7.45;5.50;;;23.20;89.10;;;;;;5055568;28;20103;-63
2022/06/16 08:12:03;;;;;;;12.52;5.90;;;23.30;89.90;;;;;;5057324;28;20041;-63
2022/06/16 08:14:31;;;;;;;10.65;5.90;;;23.40;90.10;;;;;;5056154;28;20056;-62
2022/06/16 08:16:58;;;;;;;9.65;5.65;;;23.50;90.10;;;;;;5055169;28;20052;-72
2022/06/16 08:19:25;;;;;;;27.30;24.35;;;23.50;89.00;;;;;;5055148;28;20469;-69
2022/06/16 08:21:52;;;;;;;10.70;6.45;;;23.60;90.00;;;;;;5071902;28;20048;-68
2022/06/16 08:24:19;;;;;;;8.38;5.40;;;23.80;90.20;;;;;;5055102;28;20506;-63
2022/06/16 08:26:46;;;;;;;9.82;5.95;;;24.00;90.10;;;;;;5057087;28;20045;-63
2022/06/16 08:29:14;;;;;;;10.13;6.20;;;24.10;89.50;;;;;;5055000;28;20075;-64
2022/06/16 08:31:41;;;;;;;7.70;5.70;;;24.20;88.60;;;;;;5055785;28;20044;-63
2022/06/16 08:34:08;;;;;;;8.48;5.32;;;24.10;87.10;;;;;;5054910;28;20064;-64
2022/06/16 08:36:35;;;;;;;8.63;5.38;;;24.20;86.90;;;;;;5057318;28;20045;-64
2022/06/16 08:39:04;;;;;;;7.78;4.95;;;24.20;86.50;;;;;;5057175;28;20045;-64
2022/06/16 08:41:45;;;;;;;9.07;5.65;;;24.30;86.90;;;;;;5056210;28;20059;-63
2022/06/16 08:44:15;;;;;;;9.77;6.05;;;24.40;86.60;;;;;;5055790;28;20041;-63
2022/06/16 08:47:04;;;;;;;9.43;5.10;;;24.50;86.40;;;;;;5055851;28;20127;-64
2022/06/16 08:49:46;;;;;;;;;;;24.60;87.10;;;;;;5055302;28;20044;-64
2022/06/16 08:52:36;;;;;;;7.63;4.95;;;24.80;89.10;;;;;;5056073;28;19942;-63
2022/06/16 08:55:38;;;;;;;12.10;5.40;;;24.90;86.70;;;;;;5055082;28;20045;-64
2022/06/16 08:58:14;;;;;;;8.05;4.82;;;25.00;83.10;;;;;;5051445;28;20044;-63
2022/06/16 09:00:55;;;;;;;8.68;5.32;;;25.00;83.40;;;;;;5054789;28;20440;-64
2022/06/16 09:03:36;;;;;;;6.97;4.72;;;25.10;83.90;;;;;;5055533;28;20384;-64
2022/06/16 09:06:15;;;;;;;8.40;4.35;;;25.20;84.20;;;;;;5055429;28;20045;-63
2022/06/16 09:08:53;;;;;;;9.18;4.00;;;25.20;83.70;;;;;;5055549;28;20045;-64
2022/06/16 09:11:46;;;;;;;9.33;4.63;;;25.30;84.40;;;;;;5037751;28;20051;-64
2022/06/16 09:15:13;;;;;;;7.63;3.88;;;25.40;81.40;;;;;;5054907;28;20060;-63
2022/06/16 09:18:08;;;;;;;6.78;4.20;;;25.40;84.40;;;;;;5033889;28;20045;-64
2022/06/16 09:20:40;;;;;;;6.55;4.22;;;25.50;83.50;;;;;;5056497;28;20045;-63
2022/06/16 09:23:25;;;;;;;6.85;4.00;;;25.80;85.10;;;;;;5055990;28;20048;-63
2022/06/16 09:26:05;;;;;;;8.40;4.55;;;26.00;85.00;;;;;;5056871;28;20049;-63
2022/06/16 09:28:52;;;;;;;7.07;4.60;;;26.00;81.90;;;;;;5056038;28;20048;-63
2022/06/16 09:31:24;;;;;;;6.78;3.63;;;26.20;81.50;;;;;;5056189;28;20047;-63
2022/06/16 09:33:54;;;;;;;7.28;4.22;;;26.30;80.60;;;;;;5055532;28;20124;-63
2022/06/16 09:36:28;;;;;;;8.80;4.20;;;26.30;77.20;;;;;;5056057;28;20064;-64
2022/06/16 09:39:16;;;;;;;8.32;3.80;;;26.30;79.60;;;;;;5055095;28;20044;-63
2022/06/16 09:45:18;;;;;;;6.93;3.45;;;26.60;74.20;;;;;;5054650;28;20052;-64
2022/06/16 09:47:51;;;;;;;7.25;3.53;;;26.70;73.30;;;;;;5038318;28;20108;-64
2022/06/16 09:50:40;;;;;;;7.47;3.42;;;26.80;73.30;;;;;;5055739;28;20047;-64
2022/06/16 09:53:14;;;;;;;5.05;3.20;;;27.00;73.50;;;;;;5055042;28;20063;-64
2022/06/16 09:55:49;;;;;;;7.22;3.40;;;27.10;72.00;;;;;;5053397;28;20049;-64
2022/06/16 09:58:34;;;;;;;9.32;3.38;;;27.10;69.00;;;;;;5054262;28;20051;-64
2022/06/16 10:01:05;;;;;;;5.70;3.10;;;27.20;69.70;;;;;;5054730;28;20045;-64
2022/06/16 10:03:39;;;;;;;5.28;2.70;;;27.30;68.70;;;;;;5054842;28;20040;-64
2022/06/16 10:06:24;;;;;;;5.22;2.60;;;27.50;67.80;;;;;;5054375;28;20166;-64
2022/06/16 10:09:08;;;;;;;6.20;3.10;;;27.50;65.00;;;;;;5053305;28;20048;-64
2022/06/16 10:12:02;;;;;;;8.23;3.28;;;27.60;64.80;;;;;;5053101;28;20086;-64
2022/06/16 10:14:46;;;;;;;4.05;2.60;;;27.70;61.90;;;;;;5053755;28;20048;-64
2022/06/16 10:17:18;;;;;;;5.05;2.70;;;27.70;60.60;;;;;;5036383;28;20059;-64
2022/06/16 10:19:45;;;;;;;5.50;2.15;;;27.80;63.50;;;;;;5052845;28;20401;-64
2022/06/16 10:22:14;;;;;;;5.60;2.80;;;27.90;64.20;;;;;;5052797;28;20472;-64
2022/06/16 10:24:46;;;;;;;6.28;3.05;;;27.90;63.00;;;;;;5053613;28;20143;-64
2022/06/16 10:27:14;;;;;;;5.00;2.58;;;27.90;61.40;;;;;;5036569;28;20052;-64
2022/06/16 10:29:54;;;;;;;6.60;2.97;;;27.90;62.60;;;;;;5052711;28;20491;-64
2022/06/16 10:32:40;;;;;;;7.15;3.83;;;27.90;62.00;;;;;;5053915;28;20496;-66
2022/06/16 10:35:10;;;;;;;102.25;92.28;;;27.90;58.80;;;;;;5054948;28;20053;-65
2022/06/16 10:37:39;;;;;;;13.95;12.10;;;27.90;60.20;;;;;;5052988;28;20037;-65
2022/06/16 10:40:21;;;;;;;8.13;5.07;;;28.00;60.20;;;;;;5069053;28;20049;-65
2022/06/16 10:42:50;;;;;;;5.60;2.80;;;28.10;60.00;;;;;;5052500;28;20135;-64
2022/06/16 10:45:27;;;;;;;6.38;3.00;;;28.10;60.30;;;;;;5052672;28;20048;-65
2022/06/16 10:48:00;;;;;;;5.25;2.65;;;28.00;60.50;;;;;;5054453;28;20063;-65
2022/06/16 10:50:34;;;;;;;4.95;2.65;;;27.90;60.80;;;;;;5054651;28;20048;-65
2022/06/16 10:53:07;;;;;;;5.10;2.53;;;27.90;61.30;;;;;;5053601;28;20041;-65
2022/06/16 10:55:55;;;;;;;5.32;3.33;;;27.90;61.80;;;;;;5053409;28;20059;-65
2022/06/16 10:58:25;;;;;;;5.43;2.58;;;28.10;60.60;;;;;;5053122;28;20048;-67
2022/06/16 11:01:27;;;;;;;5.60;2.88;;;28.10;59.90;;;;;;5053021;28;20423;-64
2022/06/16 11:04:09;;;;;;;4.03;2.33;;;28.30;58.30;;;;;;5052740;28;20092;-66
2022/06/16 11:06:47;;;;;;;6.65;2.95;;;28.40;59.70;;;;;;5054144;28;20048;-77
2022/06/16 11:09:19;;;;;;;7.07;3.30;;;28.30;57.50;;;;;;5036876;28;20059;-69
2022/06/16 11:11:57;;;;;;;4.55;2.65;;;28.30;60.30;;;;;;5053157;28;20047;-69
2022/06/16 11:14:34;;;;;;;5.82;2.47;;;28.30;60.80;;;;;;5052118;28;20053;-76
2022/06/16 11:17:06;;;;;;;3.83;2.83;;;28.40;60.60;;;;;;5035527;28;20057;-69
2022/06/16 11:19:34;;;;;;;3.30;2.20;;;28.40;61.50;;;;;;5051928;28;20045;-75
2022/06/16 11:22:35;;;;;;;5.43;2.45;;;28.50;62.00;;;;;;5035456;28;20044;-74
2022/06/16 11:25:23;;;;;;;6.28;3.33;;;28.70;58.60;;;;;;5053634;28;20535;-72
2022/06/16 11:28:21;;;;;;;3.72;2.33;;;28.80;56.50;;;;;;5052039;28;20103;-73
2022/06/16 11:30:48;;;;;;;4.53;2.40;;;28.70;59.40;;;;;;5049925;28;20476;-73
2022/06/16 11:36:43;;;;;;;4.63;2.50;;;28.70;59.40;;;;;;5053721;28;20365;-75
2022/06/16 11:39:19;;;;;;;3.40;2.25;;;28.70;56.80;;;;;;5057553;28;20461;-76
2022/06/16 11:41:49;;;;;;;5.85;3.78;;;28.70;59.00;;;;;;5057055;28;20045;-74
2022/06/16 11:44:22;;;;;;;6.63;3.53;;;28.80;57.60;;;;;;5056106;28;20037;-70
2022/06/16 11:46:53;;;;;;;11.05;7.38;;;28.80;56.90;;;;;;5058043;28;20122;-69
2022/06/16 11:49:55;;;;;;;5.65;3.85;;;29.00;57.70;;;;;;5056604;28;20044;-72
2022/06/16 11:53:02;;;;;;;5.35;2.70;;;29.10;55.90;;;;;;5056846;28;20051;-79
2022/06/16 11:55:35;;;;;;;6.53;2.90;;;28.90;58.20;;;;;;5055474;28;20056;-79
2022/06/16 11:58:27;;;;;;;8.50;3.33;;;28.90;57.70;;;;;;5057027;28;20049;-79
2022/06/16 12:01:03;;;;;;;7.18;3.00;;;28.90;56.30;;;;;;5056278;28;20372;-78
2022/06/16 12:03:46;;;;;;;5.00;3.38;;;28.90;57.60;;;;;;5055950;28;20059;-77
2022/06/16 12:06:31;;;;;;;7.50;3.53;;;28.80;58.70;;;;;;5056965;28;20103;-79
2022/06/16 12:09:07;;;;;;;6.28;4.03;;;28.80;58.20;;;;;;5057727;28;20052;-82
2022/06/16 12:11:44;;;;;;;5.65;3.08;;;28.90;58.50;;;;;;5056830;28;20055;-80
2022/06/16 12:14:37;;;;;;;5.55;3.13;;;29.00;59.30;;;;;;5055547;28;20132;-79
2022/06/16 12:17:35;;;;;;;8.32;2.90;;;29.00;59.40;;;;;;5056276;28;20041;-80
2022/06/16 12:20:11;;;;;;;6.20;3.17;;;29.10;56.00;;;;;;5056551;28;20048;-80
2022/06/16 12:42:02;;;;;;;5.72;3.15;;;29.30;57.80;;;;;;5056130;28;20036;-74
2022/06/16 12:44:52;;;;;;;3.75;2.30;;;29.40;56.50;;;;;;5056107;28;20052;-70
2022/06/16 12:47:46;;;;;;;3.33;2.53;;;29.20;55.50;;;;;;5055179;28;20385;-74
2022/06/16 12:50:23;;;;;;;5.22;2.50;;;29.20;55.00;;;;;;5055500;28;20075;-73
2022/06/16 12:52:58;;;;;;;3.63;2.10;;;29.30;56.70;;;;;;5055676;28;20147;-73
2022/06/16 12:55:38;;;;;;;3.08;2.65;;;29.20;57.10;;;;;;5055512;28;20132;-71
2022/06/16 12:58:10;;;;;;;4.93;2.30;;;29.20;56.20;;;;;;5039544;28;20051;-70
2022/06/16 13:00:40;;;;;;;3.30;2.35;;;29.20;56.20;;;;;;5055538;28;20452;-74
2022/06/16 13:03:17;;;;;;;3.97;2.35;;;29.20;56.50;;;;;;5056788;28;20041;-69
2022/06/16 13:05:44;;;;;;;4.85;2.35;;;29.20;57.20;;;;;;5037927;28;20048;-72
2022/06/16 13:08:11;;;;;;;5.30;2.50;;;29.30;53.10;;;;;;5055898;28;20045;-70
2022/06/16 13:10:44;;;;;;;4.40;2.20;;;29.20;54.70;;;;;;5054813;28;20081;-73
2022/06/16 13:13:23;;;;;;;4.55;2.20;;;29.10;54.40;;;;;;5038843;28;20431;-69
2022/06/16 13:15:59;;;;;;;4.15;2.33;;;29.00;55.40;;;;;;5054868;28;20499;-70
2022/06/16 13:18:45;;;;;;;4.05;2.03;;;29.10;54.60;;;;;;5054572;28;20427;-75
2022/06/16 13:21:26;;;;;;;4.15;2.20;;;29.20;54.50;;;;;;5054860;28;20138;-73
2022/06/16 13:24:10;;;;;;;2.58;2.00;;;29.10;52.50;;;;;;5056296;28;20051;-73
2022/06/16 13:26:42;;;;;;;3.42;1.90;;;29.10;52.80;;;;;;5037734;28;20501;-72
2022/06/16 13:29:15;;;;;;;5.55;2.33;;;29.10;52.40;;;;;;5054608;28;20149;-67
2022/06/16 13:31:42;;;;;;;3.80;2.00;;;29.10;54.00;;;;;;5055085;28;20044;-68
2022/06/16 13:34:14;;;;;;;6.00;2.63;;;29.10;52.10;;;;;;5054692;28;20132;-75
2022/06/16 13:36:52;;;;;;;9.82;3.88;;;29.00;52.60;;;;;;5054201;28;20044;-74
2022/06/16 13:39:56;;;;;;;4.05;2.47;;;28.90;55.70;;;;;;5055849;28;20123;-75
2022/06/16 13:42:43;;;;;;;4.55;2.63;;;28.70;50.60;;;;;;5053790;28;20460;-79
2022/06/16 13:45:10;;;;;;;4.82;2.05;;;28.50;53.40;;;;;;5040083;28;20138;-78
2022/06/16 13:47:44;;;;;;;3.60;2.00;;;28.50;53.80;;;;;;5055266;28;20136;-69
2022/06/16 13:50:22;;;;;;;4.47;2.92;;;28.50;55.40;;;;;;5054706;28;20076;-67
2022/06/16 13:53:02;;;;;;;4.75;2.92;;;28.70;53.80;;;;;;5053492;28;20045;-67
2022/06/16 13:55:34;;;;;;;4.68;2.08;;;28.70;55.70;;;;;;5036991;28;20048;-66
2022/06/16 13:58:13;;;;;;;3.40;2.10;;;28.80;55.60;;;;;;5036829;28;20472;-66
2022/06/16 14:00:40;;;;;;;2.97;2.13;;;28.80;55.10;;;;;;5052673;28;20052;-66